sensor_id;sensor_type;location;lat;lon;timestamp;P1;durP1;ratioP1;P2;durP2;ratioP2
18316;SDS011;9284;52.298;21.164;2022-09-04T03:15:22;14.73;;;5.60;;
18316;SDS011;9284;52.298;21.164;2022-09-04T03:17:55;9.77;;;5.33;;
18316;SDS011;9284;52.298;21.164;2022-09-04T03:20:29;10.98;;;5.72;;
18316;SDS011;9284;52.298;21.164;2022-09-04T03:23:00;14.80;;;5.10;;
18316;SDS011;9284;52.298;21.164;2022-09-04T03:25:44;11.25;;;5.18;;
18316;SDS011;9284;52.298;21.164;2022-09-04T03:28:39;11.35;;;5.45;;
18316;SDS011;9284;52.298;21.164;2022-09-04T03:31:26;12.27;;;5.45;;
18316;SDS011;9284;52.298;21.164;2022-09-04T03:34:01;13.43;;;5.75;;
18316;SDS011;9284;52.298;21.164;2022-09-04T03:36:43;12.93;;;5.57;;
18316;SDS011;9284;52.298;21.164;2022-09-04T03:39:22;10.67;;;5.90;;
18316;SDS011;9284;52.298;21.164;2022-09-04T03:41:56;7.47;;;4.90;;
18316;SDS011;9284;52.298;21.164;2022-09-04T03:44:37;11.40;;;5.30;;
18316;SDS011;9284;52.298;21.164;2022-09-04T03:47:18;10.05;;;5.65;;
18316;SDS011;9284;52.298;21.164;2022-09-04T03:49:58;9.75;;;5.30;;
18316;SDS011;9284;52.298;21.164;2022-09-04T03:52:36;9.83;;;5.17;;
18316;SDS011;9284;52.298;21.164;2022-09-04T03:55:30;12.23;;;5.43;;
18316;SDS011;9284;52.298;21.164;2022-09-04T03:58:13;11.70;;;5.90;;
18316;SDS011;9284;52.298;21.164;2022-09-04T04:00:52;12.57;;;5.73;;
18316;SDS011;9284;52.298;21.164;2022-09-04T04:06:25;9.13;;;5.40;;
18316;SDS011;9284;52.298;21.164;2022-09-04T04:09:07;9.27;;;5.27;;
18316;SDS011;9284;52.298;21.164;2022-09-04T04:11:48;11.37;;;5.93;;
18316;SDS011;9284;52.298;21.164;2022-09-04T04:14:36;10.90;;;5.53;;
18316;SDS011;9284;52.298;21.164;2022-09-04T04:17:25;10.07;;;5.22;;
18316;SDS011;9284;52.298;21.164;2022-09-04T04:20:15;13.93;;;5.43;;
18316;SDS011;9284;52.298;21.164;2022-09-04T04:23:00;10.52;;;5.57;;
18316;SDS011;9284;52.298;21.164;2022-09-04T04:25:53;12.33;;;6.00;;
18316;SDS011;9284;52.298;21.164;2022-09-04T04:31:29;9.63;;;5.33;;
18316;SDS011;9284;52.298;21.164;2022-09-04T04:34:14;11.47;;;5.40;;
18316;SDS011;9284;52.298;21.164;2022-09-04T04:36:50;15.60;;;5.72;;
18316;SDS011;9284;52.298;21.164;2022-09-04T04:39:24;8.93;;;5.20;;
18316;SDS011;9284;52.298;21.164;2022-09-04T04:42:07;10.02;;;5.35;;
18316;SDS011;9284;52.298;21.164;2022-09-04T04:44:49;9.18;;;5.28;;
18316;SDS011;9284;52.298;21.164;2022-09-04T04:47:48;9.95;;;5.85;;
18316;SDS011;9284;52.298;21.164;2022-09-04T04:50:31;9.10;;;5.07;;
18316;SDS011;9284;52.298;21.164;2022-09-04T04:53:10;9.95;;;4.90;;
18316;SDS011;9284;52.298;21.164;2022-09-04T04:55:43;8.98;;;4.72;;
18316;SDS011;9284;52.298;21.164;2022-09-04T04:58:25;11.20;;;5.22;;
18316;SDS011;9284;52.298;21.164;2022-09-04T05:01:06;11.23;;;5.68;;
18316;SDS011;9284;52.298;21.164;2022-09-04T05:03:41;11.90;;;5.68;;
18316;SDS011;9284;52.298;21.164;2022-09-04T05:06:21;11.95;;;4.88;;
18316;SDS011;9284;52.298;21.164;2022-09-04T05:09:00;7.32;;;4.72;;
18316;SDS011;9284;52.298;21.164;2022-09-04T05:11:39;9.55;;;5.50;;
18316;SDS011;9284;52.298;21.164;2022-09-04T05:14:20;9.40;;;4.70;;
18316;SDS011;9284;52.298;21.164;2022-09-04T05:16:56;8.50;;;4.90;;
18316;SDS011;9284;52.298;21.164;2022-09-04T05:19:34;10.57;;;5.30;;
18316;SDS011;9284;52.298;21.164;2022-09-04T05:22:11;9.55;;;5.10;;
18316;SDS011;9284;52.298;21.164;2022-09-04T05:24:49;6.63;;;4.13;;
18316;SDS011;9284;52.298;21.164;2022-09-04T05:27:33;10.48;;;4.97;;
18316;SDS011;9284;52.298;21.164;2022-09-04T05:30:09;9.63;;;4.82;;
18316;SDS011;9284;52.298;21.164;2022-09-04T05:32:43;10.15;;;4.90;;
18316;SDS011;9284;52.298;21.164;2022-09-04T05:35:21;10.25;;;5.32;;
18316;SDS011;9284;52.298;21.164;2022-09-04T05:38:02;10.85;;;4.70;;
18316;SDS011;9284;52.298;21.164;2022-09-04T05:40:37;10.48;;;5.07;;
18316;SDS011;9284;52.298;21.164;2022-09-04T05:43:28;8.93;;;5.55;;
18316;SDS011;9284;52.298;21.164;2022-09-04T05:46:05;7.13;;;4.53;;
18316;SDS011;9284;52.298;21.164;2022-09-04T05:48:41;10.93;;;4.90;;
18316;SDS011;9284;52.298;21.164;2022-09-04T05:54:19;8.27;;;4.95;;
18316;SDS011;9284;52.298;21.164;2022-09-04T05:57:20;8.00;;;4.65;;
18316;SDS011;9284;52.298;21.164;2022-09-04T06:00:01;8.18;;;4.65;;
18316;SDS011;9284;52.298;21.164;2022-09-04T06:02:50;8.10;;;4.95;;
18316;SDS011;9284;52.298;21.164;2022-09-04T06:05:43;8.65;;;5.22;;
18316;SDS011;9284;52.298;21.164;2022-09-04T06:08:28;9.90;;;6.22;;
18316;SDS011;9284;52.298;21.164;2022-09-04T06:11:05;9.52;;;6.25;;
18316;SDS011;9284;52.298;21.164;2022-09-04T06:14:01;8.30;;;5.68;;
18316;SDS011;9284;52.298;21.164;2022-09-04T06:16:44;10.68;;;5.60;;
18316;SDS011;9284;52.298;21.164;2022-09-04T06:22:29;11.52;;;5.50;;
18316;SDS011;9284;52.298;21.164;2022-09-04T06:25:21;9.80;;;5.40;;
18316;SDS011;9284;52.298;21.164;2022-09-04T06:28:04;10.85;;;5.13;;
18316;SDS011;9284;52.298;21.164;2022-09-04T06:30:44;8.98;;;4.95;;
18316;SDS011;9284;52.298;21.164;2022-09-04T06:33:25;7.80;;;4.90;;
18316;SDS011;9284;52.298;21.164;2022-09-04T06:36:10;10.18;;;5.32;;
18316;SDS011;9284;52.298;21.164;2022-09-04T06:38:53;8.27;;;4.90;;
18316;SDS011;9284;52.298;21.164;2022-09-04T06:41:44;8.90;;;5.47;;
18316;SDS011;9284;52.298;21.164;2022-09-04T06:44:31;8.20;;;5.70;;
18316;SDS011;9284;52.298;21.164;2022-09-04T06:47:11;9.63;;;5.43;;
18316;SDS011;9284;52.298;21.164;2022-09-04T06:52:40;7.68;;;5.78;;
18316;SDS011;9284;52.298;21.164;2022-09-04T06:55:18;10.60;;;6.05;;
18316;SDS011;9284;52.298;21.164;2022-09-04T06:57:57;7.85;;;5.72;;
18316;SDS011;9284;52.298;21.164;2022-09-04T07:00:43;8.65;;;4.88;;
18316;SDS011;9284;52.298;21.164;2022-09-04T07:03:26;6.38;;;4.93;;
18316;SDS011;9284;52.298;21.164;2022-09-04T07:06:07;7.40;;;5.13;;
18316;SDS011;9284;52.298;21.164;2022-09-04T07:08:53;8.57;;;4.50;;
18316;SDS011;9284;52.298;21.164;2022-09-04T07:11:41;8.35;;;4.85;;
18316;SDS011;9284;52.298;21.164;2022-09-04T07:14:30;6.70;;;4.68;;
18316;SDS011;9284;52.298;21.164;2022-09-04T07:17:13;6.53;;;5.05;;
18316;SDS011;9284;52.298;21.164;2022-09-04T07:22:56;6.15;;;4.43;;
18316;SDS011;9284;52.298;21.164;2022-09-04T07:25:39;7.38;;;4.50;;
18316;SDS011;9284;52.298;21.164;2022-09-04T07:28:31;5.20;;;4.40;;
18316;SDS011;9284;52.298;21.164;2022-09-04T07:31:18;5.55;;;4.45;;
18316;SDS011;9284;52.298;21.164;2022-09-04T07:33:56;8.45;;;4.93;;
18316;SDS011;9284;52.298;21.164;2022-09-04T07:36:30;7.75;;;5.07;;
18316;SDS011;9284;52.298;21.164;2022-09-04T07:39:09;5.60;;;4.28;;
18316;SDS011;9284;52.298;21.164;2022-09-04T07:41:48;8.55;;;4.43;;
18316;SDS011;9284;52.298;21.164;2022-09-04T07:44:25;5.72;;;4.88;;
18316;SDS011;9284;52.298;21.164;2022-09-04T07:47:01;7.47;;;4.68;;
18316;SDS011;9284;52.298;21.164;2022-09-04T07:49:41;6.20;;;4.60;;
18316;SDS011;9284;52.298;21.164;2022-09-04T07:52:19;5.93;;;4.50;;
18316;SDS011;9284;52.298;21.164;2022-09-04T07:55:09;5.95;;;4.55;;
18316;SDS011;9284;52.298;21.164;2022-09-04T08:00:53;6.68;;;4.55;;
18316;SDS011;9284;52.298;21.164;2022-09-04T08:03:36;6.20;;;4.50;;
18316;SDS011;9284;52.298;21.164;2022-09-04T08:06:22;6.70;;;4.80;;
18316;SDS011;9284;52.298;21.164;2022-09-04T08:09:06;6.95;;;4.75;;
18316;SDS011;9284;52.298;21.164;2022-09-04T08:11:56;8.15;;;4.78;;
18316;SDS011;9284;52.298;21.164;2022-09-04T08:17:45;6.53;;;4.78;;
18316;SDS011;9284;52.298;21.164;2022-09-04T08:20:31;5.25;;;4.53;;
18316;SDS011;9284;52.298;21.164;2022-09-04T08:23:15;6.60;;;4.50;;
18316;SDS011;9284;52.298;21.164;2022-09-04T08:26:10;6.15;;;4.50;;
18316;SDS011;9284;52.298;21.164;2022-09-04T08:28:55;6.30;;;4.55;;
18316;SDS011;9284;52.298;21.164;2022-09-04T08:31:35;6.00;;;4.13;;
18316;SDS011;9284;52.298;21.164;2022-09-04T08:34:30;7.90;;;4.45;;
18316;SDS011;9284;52.298;21.164;2022-09-04T08:37:13;8.40;;;4.00;;
18316;SDS011;9284;52.298;21.164;2022-09-04T08:39:53;6.97;;;3.85;;
18316;SDS011;9284;52.298;21.164;2022-09-04T08:42:47;5.30;;;3.50;;
18316;SDS011;9284;52.298;21.164;2022-09-04T08:45:49;7.13;;;3.50;;
18316;SDS011;9284;52.298;21.164;2022-09-04T08:54:52;6.90;;;3.10;;
18316;SDS011;9284;52.298;21.164;2022-09-04T08:57:42;5.43;;;2.88;;
18316;SDS011;9284;52.298;21.164;2022-09-04T09:00:39;6.75;;;2.97;;
18316;SDS011;9284;52.298;21.164;2022-09-04T09:03:29;5.53;;;3.33;;
18316;SDS011;9284;52.298;21.164;2022-09-04T09:06:30;4.18;;;3.30;;
18316;SDS011;9284;52.298;21.164;2022-09-04T09:09:47;5.05;;;3.10;;
18316;SDS011;9284;52.298;21.164;2022-09-04T09:15:51;4.57;;;3.10;;
18316;SDS011;9284;52.298;21.164;2022-09-04T09:18:47;5.78;;;3.72;;
18316;SDS011;9284;52.298;21.164;2022-09-04T09:21:41;8.05;;;3.65;;
18316;SDS011;9284;52.298;21.164;2022-09-04T09:30:57;4.55;;;3.33;;
18316;SDS011;9284;52.298;21.164;2022-09-04T09:37:07;5.55;;;4.15;;
18316;SDS011;9284;52.298;21.164;2022-09-04T09:40:14;5.57;;;3.42;;
18316;SDS011;9284;52.298;21.164;2022-09-04T09:46:34;6.40;;;3.85;;
18316;SDS011;9284;52.298;21.164;2022-09-04T09:49:32;8.70;;;3.97;;
18316;SDS011;9284;52.298;21.164;2022-09-04T09:52:26;6.38;;;3.85;;
18316;SDS011;9284;52.298;21.164;2022-09-04T09:55:26;9.02;;;4.53;;
18316;SDS011;9284;52.298;21.164;2022-09-04T10:01:33;7.45;;;4.03;;
18316;SDS011;9284;52.298;21.164;2022-09-04T10:04:23;6.80;;;4.07;;
18316;SDS011;9284;52.298;21.164;2022-09-04T10:07:12;7.30;;;4.53;;
18316;SDS011;9284;52.298;21.164;2022-09-04T10:10:07;7.85;;;4.60;;
18316;SDS011;9284;52.298;21.164;2022-09-04T10:19:23;7.55;;;4.55;;
18316;SDS011;9284;52.298;21.164;2022-09-04T10:22:36;8.35;;;4.50;;
18316;SDS011;9284;52.298;21.164;2022-09-04T10:25:48;7.80;;;4.28;;
18316;SDS011;9284;52.298;21.164;2022-09-04T10:37:35;5.90;;;4.32;;
18316;SDS011;9284;52.298;21.164;2022-09-04T10:40:21;8.25;;;4.22;;
18316;SDS011;9284;52.298;21.164;2022-09-04T10:43:12;5.55;;;3.95;;
18316;SDS011;9284;52.298;21.164;2022-09-04T10:45:53;7.85;;;4.35;;
18316;SDS011;9284;52.298;21.164;2022-09-04T10:51:49;5.93;;;4.20;;
18316;SDS011;9284;52.298;21.164;2022-09-04T10:55:02;7.93;;;4.25;;
18316;SDS011;9284;52.298;21.164;2022-09-04T10:58:03;10.63;;;4.40;;
18316;SDS011;9284;52.298;21.164;2022-09-04T11:00:46;5.78;;;4.60;;
18316;SDS011;9284;52.298;21.164;2022-09-04T11:03:35;7.47;;;5.20;;
18316;SDS011;9284;52.298;21.164;2022-09-04T11:06:32;6.30;;;4.65;;
18316;SDS011;9284;52.298;21.164;2022-09-04T11:09:31;6.70;;;4.50;;
18316;SDS011;9284;52.298;21.164;2022-09-04T11:12:26;6.95;;;4.35;;
18316;SDS011;9284;52.298;21.164;2022-09-04T11:15:20;7.32;;;4.82;;
18316;SDS011;9284;52.298;21.164;2022-09-04T11:18:11;7.40;;;4.15;;
18316;SDS011;9284;52.298;21.164;2022-09-04T11:21:49;5.90;;;4.55;;
18316;SDS011;9284;52.298;21.164;2022-09-04T11:24:34;6.13;;;4.45;;
18316;SDS011;9284;52.298;21.164;2022-09-04T11:27:37;6.00;;;4.20;;
18316;SDS011;9284;52.298;21.164;2022-09-04T11:30:25;5.85;;;4.03;;
18316;SDS011;9284;52.298;21.164;2022-09-04T11:33:32;5.45;;;3.90;;
18316;SDS011;9284;52.298;21.164;2022-09-04T11:36:32;8.02;;;4.28;;
18316;SDS011;9284;52.298;21.164;2022-09-04T11:39:30;6.10;;;3.78;;
18316;SDS011;9284;52.298;21.164;2022-09-04T11:42:30;8.10;;;4.75;;
18316;SDS011;9284;52.298;21.164;2022-09-04T11:45:11;7.57;;;3.25;;
18316;SDS011;9284;52.298;21.164;2022-09-04T11:48:07;5.50;;;3.70;;
18316;SDS011;9284;52.298;21.164;2022-09-04T11:51:05;5.38;;;3.55;;
18316;SDS011;9284;52.298;21.164;2022-09-04T11:54:07;5.70;;;4.07;;
18316;SDS011;9284;52.298;21.164;2022-09-04T11:56:58;8.50;;;3.42;;
18316;SDS011;9284;52.298;21.164;2022-09-04T11:59:45;7.40;;;3.50;;
18316;SDS011;9284;52.298;21.164;2022-09-04T12:02:48;7.25;;;3.85;;
18316;SDS011;9284;52.298;21.164;2022-09-04T12:05:38;5.30;;;3.30;;
18316;SDS011;9284;52.298;21.164;2022-09-04T12:14:45;7.05;;;3.40;;
18316;SDS011;9284;52.298;21.164;2022-09-04T12:17:48;6.65;;;3.58;;
18316;SDS011;9284;52.298;21.164;2022-09-04T12:24:13;5.57;;;3.95;;
18316;SDS011;9284;52.298;21.164;2022-09-04T12:39:00;4.70;;;3.15;;
18316;SDS011;9284;52.298;21.164;2022-09-04T12:41:52;7.57;;;3.50;;
18316;SDS011;9284;52.298;21.164;2022-09-04T12:44:31;3.90;;;2.95;;
18316;SDS011;9284;52.298;21.164;2022-09-04T12:47:13;5.07;;;3.42;;
18316;SDS011;9284;52.298;21.164;2022-09-04T12:52:56;4.70;;;2.80;;
18316;SDS011;9284;52.298;21.164;2022-09-04T12:55:33;5.55;;;3.13;;
18316;SDS011;9284;52.298;21.164;2022-09-04T12:58:11;5.38;;;3.05;;
18316;SDS011;9284;52.298;21.164;2022-09-04T13:00:48;4.57;;;3.20;;
18316;SDS011;9284;52.298;21.164;2022-09-04T13:03:27;6.43;;;3.42;;
18316;SDS011;9284;52.298;21.164;2022-09-04T13:06:06;5.75;;;3.35;;
18316;SDS011;9284;52.298;21.164;2022-09-04T13:08:48;3.70;;;2.92;;
18316;SDS011;9284;52.298;21.164;2022-09-04T13:11:26;5.05;;;3.13;;
18316;SDS011;9284;52.298;21.164;2022-09-04T13:17:05;3.63;;;3.05;;
18316;SDS011;9284;52.298;21.164;2022-09-04T13:19:47;7.13;;;2.95;;
18316;SDS011;9284;52.298;21.164;2022-09-04T13:22:27;5.75;;;3.75;;
18316;SDS011;9284;52.298;21.164;2022-09-04T13:25:06;5.80;;;3.42;;
18316;SDS011;9284;52.298;21.164;2022-09-04T13:27:45;5.45;;;3.25;;
18316;SDS011;9284;52.298;21.164;2022-09-04T13:30:22;5.43;;;3.30;;
18316;SDS011;9284;52.298;21.164;2022-09-04T13:32:58;6.43;;;3.42;;
18316;SDS011;9284;52.298;21.164;2022-09-04T13:35:44;4.93;;;3.13;;
18316;SDS011;9284;52.298;21.164;2022-09-04T13:41:41;5.65;;;3.40;;
18316;SDS011;9284;52.298;21.164;2022-09-04T13:44:41;5.80;;;3.25;;
18316;SDS011;9284;52.298;21.164;2022-09-04T13:47:21;5.25;;;3.40;;
18316;SDS011;9284;52.298;21.164;2022-09-04T13:50:01;4.93;;;3.40;;
18316;SDS011;9284;52.298;21.164;2022-09-04T13:52:37;5.80;;;3.45;;
18316;SDS011;9284;52.298;21.164;2022-09-04T13:55:11;4.55;;;2.70;;
18316;SDS011;9284;52.298;21.164;2022-09-04T13:57:46;3.90;;;3.20;;
18316;SDS011;9284;52.298;21.164;2022-09-04T14:00:23;3.92;;;2.85;;
18316;SDS011;9284;52.298;21.164;2022-09-04T14:02:54;4.45;;;2.90;;
18316;SDS011;9284;52.298;21.164;2022-09-04T14:05:30;7.28;;;2.85;;
18316;SDS011;9284;52.298;21.164;2022-09-04T14:08:05;5.70;;;2.92;;
18316;SDS011;9284;52.298;21.164;2022-09-04T14:11:00;4.93;;;3.28;;
18316;SDS011;9284;52.298;21.164;2022-09-04T14:14:00;4.45;;;2.60;;
18316;SDS011;9284;52.298;21.164;2022-09-04T14:16:40;3.28;;;2.47;;
18316;SDS011;9284;52.298;21.164;2022-09-04T14:19:12;6.57;;;2.92;;
18316;SDS011;9284;52.298;21.164;2022-09-04T14:22:02;6.38;;;3.50;;
18316;SDS011;9284;52.298;21.164;2022-09-04T14:24:49;5.38;;;3.25;;
18316;SDS011;9284;52.298;21.164;2022-09-04T14:27:32;7.15;;;3.13;;
18316;SDS011;9284;52.298;21.164;2022-09-04T14:30:12;7.28;;;2.88;;
18316;SDS011;9284;52.298;21.164;2022-09-04T14:32:48;8.02;;;3.22;;
18316;SDS011;9284;52.298;21.164;2022-09-04T14:35:34;5.25;;;2.83;;
18316;SDS011;9284;52.298;21.164;2022-09-04T14:38:14;6.50;;;3.30;;
18316;SDS011;9284;52.298;21.164;2022-09-04T14:41:06;4.47;;;3.15;;
18316;SDS011;9284;52.298;21.164;2022-09-04T14:43:45;5.82;;;3.22;;
18316;SDS011;9284;52.298;21.164;2022-09-04T14:46:30;7.15;;;3.22;;
18316;SDS011;9284;52.298;21.164;2022-09-04T14:49:05;6.13;;;2.92;;
18316;SDS011;9284;52.298;21.164;2022-09-04T14:51:37;5.47;;;3.08;;
18316;SDS011;9284;52.298;21.164;2022-09-04T14:54:12;6.40;;;3.20;;
18316;SDS011;9284;52.298;21.164;2022-09-04T14:56:45;4.20;;;3.08;;
18316;SDS011;9284;52.298;21.164;2022-09-04T14:59:18;6.05;;;3.00;;
18316;SDS011;9284;52.298;21.164;2022-09-04T15:04:45;6.03;;;3.22;;
18316;SDS011;9284;52.298;21.164;2022-09-04T15:07:20;4.40;;;2.83;;
18316;SDS011;9284;52.298;21.164;2022-09-04T15:10:03;3.38;;;2.75;;
18316;SDS011;9284;52.298;21.164;2022-09-04T15:12:42;5.20;;;2.70;;
18316;SDS011;9284;52.298;21.164;2022-09-04T15:15:17;6.00;;;3.60;;
18316;SDS011;9284;52.298;21.164;2022-09-04T15:17:51;6.95;;;3.28;;
18316;SDS011;9284;52.298;21.164;2022-09-04T15:20:27;4.45;;;2.95;;
18316;SDS011;9284;52.298;21.164;2022-09-04T15:22:58;6.85;;;3.50;;
18316;SDS011;9284;52.298;21.164;2022-09-04T15:25:42;4.10;;;2.97;;
18316;SDS011;9284;52.298;21.164;2022-09-04T15:28:27;6.97;;;3.08;;
18316;SDS011;9284;52.298;21.164;2022-09-04T15:31:08;5.15;;;3.40;;
18316;SDS011;9284;52.298;21.164;2022-09-04T15:33:42;5.78;;;3.35;;
18316;SDS011;9284;52.298;21.164;2022-09-04T15:36:14;4.10;;;3.22;;
18316;SDS011;9284;52.298;21.164;2022-09-04T15:38:46;4.97;;;3.20;;
18316;SDS011;9284;52.298;21.164;2022-09-04T15:41:18;5.03;;;3.20;;
18316;SDS011;9284;52.298;21.164;2022-09-04T15:43:56;4.78;;;3.13;;
18316;SDS011;9284;52.298;21.164;2022-09-04T15:46:33;5.22;;;3.33;;
18316;SDS011;9284;52.298;21.164;2022-09-04T15:49:21;5.90;;;3.22;;
18316;SDS011;9284;52.298;21.164;2022-09-04T15:51:54;6.57;;;3.28;;
18316;SDS011;9284;52.298;21.164;2022-09-04T15:54:49;8.35;;;3.42;;
18316;SDS011;9284;52.298;21.164;2022-09-04T15:57:28;6.30;;;3.08;;
18316;SDS011;9284;52.298;21.164;2022-09-04T16:00:10;7.65;;;3.38;;
18316;SDS011;9284;52.298;21.164;2022-09-04T16:02:45;5.47;;;3.20;;
18316;SDS011;9284;52.298;21.164;2022-09-04T16:05:22;8.80;;;2.95;;
18316;SDS011;9284;52.298;21.164;2022-09-04T16:07:54;6.63;;;3.08;;
18316;SDS011;9284;52.298;21.164;2022-09-04T16:10:39;5.05;;;2.80;;
18316;SDS011;9284;52.298;21.164;2022-09-04T16:13:28;4.88;;;3.13;;
18316;SDS011;9284;52.298;21.164;2022-09-04T16:16:04;5.38;;;3.05;;
18316;SDS011;9284;52.298;21.164;2022-09-04T16:18:59;7.68;;;2.83;;
18316;SDS011;9284;52.298;21.164;2022-09-04T16:21:38;8.90;;;3.30;;
18316;SDS011;9284;52.298;21.164;2022-09-04T16:24:14;6.18;;;3.13;;
18316;SDS011;9284;52.298;21.164;2022-09-04T16:26:46;9.43;;;3.13;;
18316;SDS011;9284;52.298;21.164;2022-09-04T16:32:05;5.03;;;3.15;;
18316;SDS011;9284;52.298;21.164;2022-09-04T16:34:38;6.47;;;3.13;;
18316;SDS011;9284;52.298;21.164;2022-09-04T16:37:13;6.47;;;3.28;;
18316;SDS011;9284;52.298;21.164;2022-09-04T16:39:54;10.57;;;3.40;;
18316;SDS011;9284;52.298;21.164;2022-09-04T16:42:28;5.95;;;3.22;;
18316;SDS011;9284;52.298;21.164;2022-09-04T16:45:03;9.18;;;2.92;;
18316;SDS011;9284;52.298;21.164;2022-09-04T16:47:39;5.60;;;2.78;;
18316;SDS011;9284;52.298;21.164;2022-09-04T16:50:13;5.10;;;2.60;;
18316;SDS011;9284;52.298;21.164;2022-09-04T16:52:55;4.10;;;2.53;;
18316;SDS011;9284;52.298;21.164;2022-09-04T16:55:39;5.95;;;2.67;;
18316;SDS011;9284;52.298;21.164;2022-09-04T16:58:18;8.02;;;2.40;;
18316;SDS011;9284;52.298;21.164;2022-09-04T17:01:10;4.65;;;2.45;;
18316;SDS011;9284;52.298;21.164;2022-09-04T17:03:48;4.55;;;2.35;;
18316;SDS011;9284;52.298;21.164;2022-09-04T17:06:41;4.78;;;2.47;;
18316;SDS011;9284;52.298;21.164;2022-09-04T17:09:24;3.53;;;2.28;;
18316;SDS011;9284;52.298;21.164;2022-09-04T17:12:12;3.25;;;2.50;;
18316;SDS011;9284;52.298;21.164;2022-09-04T17:14:54;3.53;;;2.65;;
18316;SDS011;9284;52.298;21.164;2022-09-04T17:17:28;5.50;;;2.50;;
18316;SDS011;9284;52.298;21.164;2022-09-04T17:20:09;6.72;;;2.60;;
18316;SDS011;9284;52.298;21.164;2022-09-04T17:22:40;3.85;;;2.05;;
18316;SDS011;9284;52.298;21.164;2022-09-04T17:25:33;5.13;;;2.30;;
18316;SDS011;9284;52.298;21.164;2022-09-04T17:31:32;7.43;;;2.10;;
18316;SDS011;9284;52.298;21.164;2022-09-04T17:34:13;6.63;;;2.35;;
18316;SDS011;9284;52.298;21.164;2022-09-04T17:37:13;5.60;;;2.45;;
18316;SDS011;9284;52.298;21.164;2022-09-04T17:40:07;6.85;;;2.53;;
18316;SDS011;9284;52.298;21.164;2022-09-04T17:43:06;7.78;;;2.30;;
18316;SDS011;9284;52.298;21.164;2022-09-04T17:45:52;6.68;;;2.13;;
18316;SDS011;9284;52.298;21.164;2022-09-04T17:48:36;3.20;;;2.33;;
18316;SDS011;9284;52.298;21.164;2022-09-04T17:51:06;6.60;;;2.47;;
18316;SDS011;9284;52.298;21.164;2022-09-04T17:53:46;4.65;;;2.05;;
18316;SDS011;9284;52.298;21.164;2022-09-04T17:56:19;4.72;;;2.20;;
18316;SDS011;9284;52.298;21.164;2022-09-04T17:58:54;3.03;;;2.20;;
18316;SDS011;9284;52.298;21.164;2022-09-04T18:01:29;6.28;;;1.95;;
18316;SDS011;9284;52.298;21.164;2022-09-04T18:04:19;6.25;;;2.85;;
18316;SDS011;9284;52.298;21.164;2022-09-04T18:06:56;4.10;;;2.30;;
18316;SDS011;9284;52.298;21.164;2022-09-04T18:09:56;4.95;;;2.33;;
18316;SDS011;9284;52.298;21.164;2022-09-04T18:12:30;6.45;;;2.15;;
18316;SDS011;9284;52.298;21.164;2022-09-04T18:15:06;3.78;;;1.95;;
18316;SDS011;9284;52.298;21.164;2022-09-04T18:25:33;4.60;;;2.28;;
18316;SDS011;9284;52.298;21.164;2022-09-04T18:28:10;5.55;;;2.65;;
18316;SDS011;9284;52.298;21.164;2022-09-04T18:30:44;5.18;;;2.60;;
18316;SDS011;9284;52.298;21.164;2022-09-04T18:33:51;3.25;;;2.45;;
18316;SDS011;9284;52.298;21.164;2022-09-04T18:36:51;7.32;;;2.30;;
18316;SDS011;9284;52.298;21.164;2022-09-04T18:39:46;6.85;;;2.70;;
18316;SDS011;9284;52.298;21.164;2022-09-04T18:42:22;5.93;;;2.22;;
18316;SDS011;9284;52.298;21.164;2022-09-04T18:45:19;3.03;;;2.00;;
18316;SDS011;9284;52.298;21.164;2022-09-04T18:48:15;3.75;;;2.40;;
18316;SDS011;9284;52.298;21.164;2022-09-04T18:51:10;2.33;;;1.88;;
18316;SDS011;9284;52.298;21.164;2022-09-04T18:53:48;6.47;;;2.90;;
18316;SDS011;9284;52.298;21.164;2022-09-04T18:56:20;3.65;;;2.00;;
18316;SDS011;9284;52.298;21.164;2022-09-04T19:01:44;4.53;;;2.20;;
18316;SDS011;9284;52.298;21.164;2022-09-04T19:04:28;4.00;;;1.83;;
18316;SDS011;9284;52.298;21.164;2022-09-04T19:07:19;3.35;;;2.28;;
18316;SDS011;9284;52.298;21.164;2022-09-04T19:10:06;5.47;;;2.20;;
18316;SDS011;9284;52.298;21.164;2022-09-04T19:12:44;3.55;;;2.13;;
18316;SDS011;9284;52.298;21.164;2022-09-04T19:15:24;3.70;;;2.03;;
18316;SDS011;9284;52.298;21.164;2022-09-04T19:18:03;3.17;;;2.10;;
18316;SDS011;9284;52.298;21.164;2022-09-04T19:20:43;3.33;;;2.15;;
18316;SDS011;9284;52.298;21.164;2022-09-04T19:23:18;4.15;;;2.10;;
18316;SDS011;9284;52.298;21.164;2022-09-04T19:25:52;4.00;;;2.22;;
18316;SDS011;9284;52.298;21.164;2022-09-04T19:28:24;4.93;;;2.40;;
18316;SDS011;9284;52.298;21.164;2022-09-04T19:31:22;5.97;;;2.50;;
18316;SDS011;9284;52.298;21.164;2022-09-04T19:33:56;4.00;;;2.60;;
18316;SDS011;9284;52.298;21.164;2022-09-04T19:36:32;5.07;;;2.50;;
18316;SDS011;9284;52.298;21.164;2022-09-04T19:39:09;6.00;;;2.53;;
18316;SDS011;9284;52.298;21.164;2022-09-04T19:42:06;7.93;;;2.30;;
18316;SDS011;9284;52.298;21.164;2022-09-04T19:45:01;5.30;;;2.47;;
18316;SDS011;9284;52.298;21.164;2022-09-04T19:50:58;4.63;;;2.40;;
18316;SDS011;9284;52.298;21.164;2022-09-04T19:54:00;5.43;;;2.28;;
18316;SDS011;9284;52.298;21.164;2022-09-04T19:56:32;3.60;;;2.42;;
18316;SDS011;9284;52.298;21.164;2022-09-04T19:59:29;3.10;;;2.17;;
18316;SDS011;9284;52.298;21.164;2022-09-04T20:02:17;5.70;;;2.25;;
18316;SDS011;9284;52.298;21.164;2022-09-04T20:04:54;4.88;;;2.38;;
18316;SDS011;9284;52.298;21.164;2022-09-04T20:07:28;3.80;;;2.17;;
18316;SDS011;9284;52.298;21.164;2022-09-04T20:10:07;4.32;;;2.08;;
18316;SDS011;9284;52.298;21.164;2022-09-04T20:12:44;3.53;;;2.10;;
18316;SDS011;9284;52.298;21.164;2022-09-04T20:15:18;4.05;;;2.08;;
18316;SDS011;9284;52.298;21.164;2022-09-04T20:18:01;3.78;;;2.30;;
18316;SDS011;9284;52.298;21.164;2022-09-04T20:20:41;7.13;;;2.60;;
18316;SDS011;9284;52.298;21.164;2022-09-04T20:23:15;6.45;;;2.33;;
18316;SDS011;9284;52.298;21.164;2022-09-04T20:26:08;4.75;;;2.33;;
18316;SDS011;9284;52.298;21.164;2022-09-04T20:28:45;2.60;;;1.75;;
18316;SDS011;9284;52.298;21.164;2022-09-04T20:34:17;4.95;;;1.80;;
18316;SDS011;9284;52.298;21.164;2022-09-04T20:36:55;2.53;;;1.63;;
18316;SDS011;9284;52.298;21.164;2022-09-04T20:39:31;5.47;;;1.77;;
18316;SDS011;9284;52.298;21.164;2022-09-04T20:42:08;1.67;;;1.40;;
18316;SDS011;9284;52.298;21.164;2022-09-04T20:44:45;3.38;;;1.42;;
18316;SDS011;9284;52.298;21.164;2022-09-04T20:47:39;2.45;;;1.48;;
18316;SDS011;9284;52.298;21.164;2022-09-04T20:50:33;2.08;;;1.40;;
18316;SDS011;9284;52.298;21.164;2022-09-04T20:53:27;2.28;;;1.55;;
18316;SDS011;9284;52.298;21.164;2022-09-04T20:59:16;9.43;;;1.40;;
18316;SDS011;9284;52.298;21.164;2022-09-04T21:02:13;2.72;;;1.50;;
18316;SDS011;9284;52.298;21.164;2022-09-04T21:05:32;2.15;;;1.10;;
18316;SDS011;9284;52.298;21.164;2022-09-04T21:08:14;2.92;;;1.30;;
18316;SDS011;9284;52.298;21.164;2022-09-04T21:10:50;8.60;;;1.70;;
18316;SDS011;9284;52.298;21.164;2022-09-04T21:13:24;1.98;;;1.20;;
18316;SDS011;9284;52.298;21.164;2022-09-04T21:16:00;1.58;;;1.10;;
18316;SDS011;9284;52.298;21.164;2022-09-04T21:18:44;5.05;;;1.20;;
18316;SDS011;9284;52.298;21.164;2022-09-04T21:21:48;2.42;;;1.40;;
18316;SDS011;9284;52.298;21.164;2022-09-04T21:25:02;1.17;;;1.00;;
18316;SDS011;9284;52.298;21.164;2022-09-04T21:28:08;1.27;;;1.02;;
18316;SDS011;9284;52.298;21.164;2022-09-04T21:31:11;3.28;;;1.30;;
18316;SDS011;9284;52.298;21.164;2022-09-04T21:33:51;2.38;;;1.40;;
18316;SDS011;9284;52.298;21.164;2022-09-04T21:36:31;2.15;;;1.30;;
18316;SDS011;9284;52.298;21.164;2022-09-04T21:39:24;1.30;;;1.10;;
18316;SDS011;9284;52.298;21.164;2022-09-04T21:42:32;1.63;;;1.20;;
18316;SDS011;9284;52.298;21.164;2022-09-04T21:45:25;2.90;;;1.00;;
18316;SDS011;9284;52.298;21.164;2022-09-04T21:48:06;1.10;;;1.00;;
18316;SDS011;9284;52.298;21.164;2022-09-04T21:50:51;1.85;;;1.10;;